Time;durP1;ratioP1;P1;durP2;ratioP2;P2;SDS_P1;SDS_P2;PMS_P1;PMS_P2;Temp;Humidity;BMP_temperature;BMP_pressure;BME280_temperature;BME280_humidity;BME280_pressure;Samples;Min_cycle;Max_cycle;Signal;HPM_P1;HPM_P2
2022/07/24 00:00:04;;;;;;;;;;;28.00;99.90;;;;;;5048955;28;20297;-71
2022/07/24 00:02:30;;;;;;;;;;;28.10;99.90;;;;;;5049201;28;19931;-71
2022/07/24 00:04:56;;;;;;;;;;;28.30;99.90;;;;;;5050301;28;19995;-71
2022/07/24 00:07:22;;;;;;;;;;;28.30;99.90;;;;;;5050390;28;20345;-70
2022/07/24 00:09:47;;;;;;;;;;;28.30;99.90;;;;;;5050736;28;19948;-71
2022/07/24 00:12:13;;;;;;;;;;;28.20;99.90;;;;;;5050519;28;19992;-71
2022/07/24 00:14:39;;;;;;;;;;;28.30;99.90;;;;;;5052103;28;20287;-70
2022/07/24 00:17:04;;;;;;;;;;;28.30;99.90;;;;;;5054277;28;19935;-71
2022/07/24 00:19:30;;;;;;;;;;;28.20;99.90;;;;;;5054464;28;19919;-70
2022/07/24 00:21:57;;;;;;;;;;;28.20;99.90;;;;;;5052914;28;19968;-70
2022/07/24 00:24:22;;;;;;;;;;;28.20;99.90;;;;;;5054058;28;19921;-71
2022/07/24 00:26:48;;;;;;;;;;;28.20;99.90;;;;;;5054147;28;19920;-71
2022/07/24 00:29:13;;;;;;;;;;;28.20;99.90;;;;;;5051882;28;19928;-71
2022/07/24 00:31:39;;;;;;;;;;;28.20;99.90;;;;;;5054162;28;19909;-71
2022/07/24 00:34:04;;;;;;;;;;;28.10;99.90;;;;;;5054393;28;20380;-69
2022/07/24 00:36:30;;;;;;;;;;;28.10;99.90;;;;;;5053717;28;20364;-70
2022/07/24 00:38:56;;;;;;;;;;;28.00;99.90;;;;;;5054071;28;20275;-71
2022/07/24 00:41:21;;;;;;;;;;;28.00;99.90;;;;;;5054025;28;19912;-70
2022/07/24 00:44:05;;;;;;;;;;;28.00;99.90;;;;;;5054026;28;19956;-70
2022/07/24 00:46:31;;;;;;;;;;;28.10;99.90;;;;;;5053610;28;19909;-70
2022/07/24 00:48:57;;;;;;;;;;;28.10;99.90;;;;;;5052277;28;20415;-72
2022/07/24 00:51:23;;;;;;;;;;;28.10;99.90;;;;;;5053496;28;19959;-71
2022/07/24 00:53:49;;;;;;;;;;;28.10;99.90;;;;;;5053726;28;19909;-71
2022/07/24 00:56:15;;;;;;;;;;;28.10;99.90;;;;;;5053407;28;20056;-71
2022/07/24 00:58:40;;;;;;;;;;;28.20;99.90;;;;;;5052169;28;19917;-70
2022/07/24 01:01:06;;;;;;;;;;;28.20;99.90;;;;;;5053849;28;19979;-71
2022/07/24 01:03:32;;;;;;;;;;;28.20;99.90;;;;;;5052211;28;19913;-71
2022/07/24 01:05:58;;;;;;;;;;;28.20;99.90;;;;;;5053034;28;19931;-71
2022/07/24 01:08:24;;;;;;;;;;;28.30;99.90;;;;;;5053544;28;19974;-71
2022/07/24 01:10:50;;;;;;;;;;;28.30;99.90;;;;;;5053447;28;19909;-71
2022/07/24 01:13:15;;;;;;;;;;;28.30;99.90;;;;;;5053166;28;19908;-71
2022/07/24 01:15:41;;;;;;;;;;;28.40;99.90;;;;;;5053824;28;20379;-72
2022/07/24 01:18:07;;;;;;;;;;;28.40;99.90;;;;;;5053540;28;19917;-71
2022/07/24 01:20:36;;;;;;;;;;;28.40;99.90;;;;;;5053028;28;19909;-71
2022/07/24 01:23:01;;;;;;;;;;;28.50;99.90;;;;;;5052868;28;19909;-71
2022/07/24 01:25:27;;;;;;;;;;;28.50;99.90;;;;;;5052512;28;19916;-71
2022/07/24 01:27:52;;;;;;;;;;;28.60;99.90;;;;;;5052034;28;19971;-72
2022/07/24 01:30:18;;;;;;;;;;;28.70;99.90;;;;;;5052993;28;19909;-71
2022/07/24 01:32:44;;;;;;;;;;;28.70;99.90;;;;;;5053267;28;19908;-72
2022/07/24 01:35:09;;;;;;;;;;;28.70;99.90;;;;;;5052768;28;19915;-72
2022/07/24 01:37:35;;;;;;;;;;;28.90;99.90;;;;;;5052805;28;19912;-71
2022/07/24 01:40:01;;;;;;;;;;;28.90;99.90;;;;;;5053043;28;19965;-71
2022/07/24 01:42:26;;;;;;;;;;;28.90;99.90;;;;;;5053096;28;19916;-71
2022/07/24 01:44:52;;;;;;;;;;;28.90;99.90;;;;;;5053131;28;19944;-70
2022/07/24 01:47:18;;;;;;;;;;;28.90;99.90;;;;;;5053217;28;19915;-70
2022/07/24 01:49:43;;;;;;;;;;;28.90;99.90;;;;;;5051507;28;19943;-71
2022/07/24 01:52:09;;;;;;;;;;;28.90;99.90;;;;;;5051295;28;20356;-72
2022/07/24 01:54:35;;;;;;;;;;;28.80;99.90;;;;;;5052742;28;19953;-71
2022/07/24 01:57:00;;;;;;;;;;;28.80;99.90;;;;;;5052716;28;20014;-70
2022/07/24 01:59:26;;;;;;;;;;;28.80;99.90;;;;;;5052608;28;19944;-71
2022/07/24 02:01:51;;;;;;;;;;;28.80;99.90;;;;;;5052683;28;19913;-71
2022/07/24 02:04:17;;;;;;;;;;;28.80;99.90;;;;;;5052501;28;20283;-71
2022/07/24 02:06:42;;;;;;;;;;;28.80;99.90;;;;;;5052913;28;19916;-72
2022/07/24 02:09:08;;;;;;;;;;;28.90;99.90;;;;;;5053584;28;19909;-72
2022/07/24 02:11:34;;;;;;;;;;;28.80;99.90;;;;;;5065387;28;19922;-72
2022/07/24 02:14:00;;;;;;;;;;;28.90;99.90;;;;;;5066562;28;19909;-71
2022/07/24 02:16:26;;;;;;;;;;;28.90;99.90;;;;;;5063729;28;19934;-71
2022/07/24 02:18:52;;;;;;;;;;;28.80;99.90;;;;;;5061939;28;19934;-72
2022/07/24 02:21:17;;;;;;;;;;;29.00;99.90;;;;;;5056837;28;20356;-71
2022/07/24 02:23:43;;;;;;;;;;;29.00;99.90;;;;;;5051429;28;20438;-71
2022/07/24 02:26:08;;;;;;;;;;;29.00;99.90;;;;;;5052111;28;19908;-71
2022/07/24 02:28:34;;;;;;;;;;;29.00;99.90;;;;;;5052007;28;19909;-71
2022/07/24 02:31:00;;;;;;;;;;;29.00;99.90;;;;;;5051906;28;19944;-71
2022/07/24 02:33:25;;;;;;;;;;;29.00;99.90;;;;;;5051787;28;19916;-71
2022/07/24 02:35:51;;;;;;;;;;;29.00;99.90;;;;;;5050833;28;19909;-71
2022/07/24 02:38:16;;;;;;;;;;;29.00;99.90;;;;;;5051554;28;20411;-72
2022/07/24 02:40:42;;;;;;;;;;;29.00;99.90;;;;;;5051613;28;19999;-72
2022/07/24 02:43:08;;;;;;;;;;;28.90;99.90;;;;;;5051477;28;19954;-73
2022/07/24 02:45:33;;;;;;;;;;;28.80;99.90;;;;;;5051265;28;19909;-71
2022/07/24 02:47:59;;;;;;;;;;;28.80;99.90;;;;;;5051526;28;19908;-72
2022/07/24 02:50:28;;;;;;;;;;;28.70;99.90;;;;;;5051288;28;19912;-73
2022/07/24 02:52:54;;;;;;;;;;;28.70;99.90;;;;;;5051115;28;19909;-71
2022/07/24 02:55:20;;;;;;;;;;;28.70;99.90;;;;;;5050843;28;20311;-72
2022/07/24 02:57:45;;;;;;;;;;;28.70;99.90;;;;;;5051070;28;19916;-71
2022/07/24 03:00:12;;;;;;;;;;;28.70;99.90;;;;;;5051074;28;20398;-71
2022/07/24 03:02:38;;;;;;;;;;;28.80;99.90;;;;;;5051126;28;19916;-71
2022/07/24 03:05:04;;;;;;;;;;;28.70;99.90;;;;;;5050897;28;19909;-71
2022/07/24 03:07:30;;;;;;;;;;;28.60;99.90;;;;;;5050947;28;19912;-72
2022/07/24 03:09:56;;;;;;;;;;;28.60;99.90;;;;;;5051032;28;19916;-71
2022/07/24 03:12:21;;;;;;;;;;;28.60;99.90;;;;;;5051366;28;19992;-72
2022/07/24 03:14:47;;;;;;;;;;;28.60;99.90;;;;;;5050888;28;20368;-72
2022/07/24 03:17:13;;;;;;;;;;;28.50;99.90;;;;;;5051136;28;20005;-72
2022/07/24 03:19:38;;;;;;;;;;;28.50;99.90;;;;;;5051263;28;19962;-72
2022/07/24 03:22:04;;;;;;;;;;;28.50;99.90;;;;;;5051370;28;19908;-72
2022/07/24 03:24:29;;;;;;;;;;;28.50;99.90;;;;;;5050887;28;19947;-72
2022/07/24 03:26:55;;;;;;;;;;;28.60;99.90;;;;;;5049474;28;20164;-71
2022/07/24 03:29:20;;;;;;;;;;;28.70;99.90;;;;;;5050965;28;20355;-71
2022/07/24 03:31:46;;;;;;;;;;;28.70;99.90;;;;;;5050805;28;20272;-73
2022/07/24 03:34:12;;;;;;;;;;;28.80;99.90;;;;;;5050633;28;20422;-72
2022/07/24 03:36:38;;;;;;;;;;;28.80;99.90;;;;;;5050554;28;20291;-72
2022/07/24 03:39:04;;;;;;;;;;;28.80;99.90;;;;;;5050687;28;19922;-71
2022/07/24 03:41:30;;;;;;;;;;;28.80;99.90;;;;;;5050684;28;20098;-72
2022/07/24 03:43:55;;;;;;;;;;;28.80;99.90;;;;;;5050544;28;19909;-71
2022/07/24 03:46:21;;;;;;;;;;;28.90;99.90;;;;;;5050863;28;19952;-72
2022/07/24 03:48:47;;;;;;;;;;;28.90;99.90;;;;;;5049884;28;19915;-72
2022/07/24 03:51:12;;;;;;;;;;;28.90;99.90;;;;;;5050488;28;19942;-72
2022/07/24 03:53:38;;;;;;;;;;;29.00;99.90;;;;;;5050625;28;19919;-73
2022/07/24 03:56:04;;;;;;;;;;;28.90;99.90;;;;;;5050416;28;19988;-72
2022/07/24 03:58:30;;;;;;;;;;;28.80;99.90;;;;;;5050735;28;20452;-72
2022/07/24 04:00:55;;;;;;;;;;;28.80;99.90;;;;;;5050684;28;19999;-72
2022/07/24 04:03:21;;;;;;;;;;;28.80;99.90;;;;;;5050497;28;19971;-72
2022/07/24 04:05:47;;;;;;;;;;;28.70;99.90;;;;;;5050077;28;19916;-72
2022/07/24 04:08:12;;;;;;;;;;;28.70;99.90;;;;;;5051026;28;19913;-71
2022/07/24 04:10:38;;;;;;;;;;;28.70;99.90;;;;;;5050561;28;20433;-72
2022/07/24 04:13:03;;;;;;;;;;;28.70;99.90;;;;;;5050383;28;19927;-71
2022/07/24 04:15:29;;;;;;;;;;;28.60;99.90;;;;;;5050082;28;20295;-72
2022/07/24 04:17:54;;;;;;;;;;;28.60;99.90;;;;;;5050603;28;20007;-72
2022/07/24 04:20:20;;;;;;;;;;;28.60;99.90;;;;;;5050245;28;19909;-73
2022/07/24 04:22:47;;;;;;;;;;;28.60;99.90;;;;;;5050302;28;19909;-71
2022/07/24 04:25:12;;;;;;;;;;;28.60;99.90;;;;;;5048246;28;19921;-72
2022/07/24 04:27:38;;;;;;;;;;;28.60;99.90;;;;;;5050460;28;20296;-72
2022/07/24 04:30:04;;;;;;;;;;;28.60;99.90;;;;;;5050297;28;20356;-71
2022/07/24 04:32:29;;;;;;;;;;;28.60;99.90;;;;;;5050246;28;19963;-72
2022/07/24 04:34:55;;;;;;;;;;;28.50;99.90;;;;;;5050102;28;20261;-71
2022/07/24 04:37:21;;;;;;;;;;;28.60;99.90;;;;;;5050208;28;19926;-72
2022/07/24 04:39:46;;;;;;;;;;;28.60;99.90;;;;;;5050310;28;19916;-72
2022/07/24 04:42:12;;;;;;;;;;;28.60;99.90;;;;;;5050102;28;19913;-72
2022/07/24 04:44:37;;;;;;;;;;;28.70;99.90;;;;;;5049968;28;19909;-72
2022/07/24 04:47:03;;;;;;;;;;;28.70;99.90;;;;;;5049763;28;20426;-72
2022/07/24 04:49:29;;;;;;;;;;;28.70;99.90;;;;;;5050060;28;19909;-71
2022/07/24 04:51:54;;;;;;;;;;;28.70;99.90;;;;;;5050465;28;19908;-72
2022/07/24 04:54:20;;;;;;;;;;;28.70;99.90;;;;;;5048206;28;19916;-72
2022/07/24 04:56:45;;;;;;;;;;;28.70;99.90;;;;;;5050127;28;19915;-72
2022/07/24 04:59:11;;;;;;;;;;;28.80;99.90;;;;;;5050887;28;19971;-72
2022/07/24 05:01:38;;;;;;;;;;;28.80;99.90;;;;;;5054223;28;19913;-72
2022/07/24 05:04:03;;;;;;;;;;;28.80;99.90;;;;;;5053776;28;20348;-71
2022/07/24 05:06:29;;;;;;;;;;;28.80;99.90;;;;;;5053995;28;19920;-72
2022/07/24 05:08:55;;;;;;;;;;;28.80;99.90;;;;;;5052471;28;19912;-72
2022/07/24 05:11:20;;;;;;;;;;;28.80;99.90;;;;;;5053445;28;20341;-72
2022/07/24 05:13:46;;;;;;;;;;;28.90;99.90;;;;;;5053259;28;19962;-73
2022/07/24 05:16:11;;;;;;;;;;;29.00;99.90;;;;;;5053221;28;19912;-72
2022/07/24 05:18:37;;;;;;;;;;;29.00;99.90;;;;;;5053174;28;19916;-73
2022/07/24 05:21:03;;;;;;;;;;;29.10;99.90;;;;;;5053174;28;20406;-72
2022/07/24 05:23:28;;;;;;;;;;;29.20;99.90;;;;;;5053229;28;20528;-71
2022/07/24 05:25:54;;;;;;;;;;;29.20;99.90;;;;;;5052842;28;20336;-72
2022/07/24 05:28:20;;;;;;;;;;;29.30;99.90;;;;;;5053444;28;19909;-72
2022/07/24 05:30:45;;;;;;;;;;;29.20;99.90;;;;;;5053049;28;19924;-71
2022/07/24 05:33:11;;;;;;;;;;;29.30;99.90;;;;;;5053035;28;19909;-71
2022/07/24 05:35:36;;;;;;;;;;;29.20;99.90;;;;;;5052624;28;19959;-71
2022/07/24 05:38:02;;;;;;;;;;;29.20;99.90;;;;;;5053036;28;19952;-72
2022/07/24 05:40:28;;;;;;;;;;;29.10;99.90;;;;;;5052850;28;19912;-72
2022/07/24 05:42:53;;;;;;;;;;;29.10;99.90;;;;;;5052763;28;19952;-71
2022/07/24 05:45:19;;;;;;;;;;;29.10;99.90;;;;;;5050998;28;20364;-72
2022/07/24 05:47:44;;;;;;;;;;;29.10;99.90;;;;;;5052782;28;19941;-71
2022/07/24 05:50:11;;;;;;;;;;;29.00;99.90;;;;;;5052882;28;20079;-72
2022/07/24 05:52:37;;;;;;;;;;;29.00;99.90;;;;;;5052753;28;19909;-72
2022/07/24 05:55:03;;;;;;;;;;;29.10;99.90;;;;;;5052618;28;20360;-72
2022/07/24 05:57:29;;;;;;;;;;;29.00;99.90;;;;;;5053489;28;19913;-72
2022/07/24 05:59:55;;;;;;;;;;;29.10;99.90;;;;;;5053496;28;19928;-72
2022/07/24 06:02:20;;;;;;;;;;;29.20;99.90;;;;;;5051334;28;19909;-72
2022/07/24 06:04:46;;;;;;;;;;;29.20;99.90;;;;;;5052283;28;19909;-73
2022/07/24 06:07:12;;;;;;;;;;;29.30;99.90;;;;;;5052489;28;19916;-72
2022/07/24 06:09:37;;;;;;;;;;;29.40;99.90;;;;;;5052744;28;19909;-72
2022/07/24 06:12:04;;;;;;;;;;;29.40;99.90;;;;;;5049963;28;19916;-72
2022/07/24 06:14:30;;;;;;;;;;;29.40;99.90;;;;;;5053553;28;20292;-73
2022/07/24 06:16:55;;;;;;;;;;;29.40;99.90;;;;;;5052472;28;19909;-73
2022/07/24 06:19:21;;;;;;;;;;;29.60;99.90;;;;;;5052453;28;19913;-72
2022/07/24 06:21:47;;;;;;;;;;;29.80;99.90;;;;;;5052306;28;19909;-73
2022/07/24 06:24:12;;;;;;;;;;;29.80;99.90;;;;;;5052315;28;19921;-72
2022/07/24 06:26:38;;;;;;;;;;;29.70;99.90;;;;;;5052233;28;19911;-72
2022/07/24 06:29:03;;;;;;;;;;;29.50;99.90;;;;;;5052833;28;19976;-72
2022/07/24 06:31:29;;;;;;;;;;;29.60;99.90;;;;;;5052529;28;19908;-71
2022/07/24 06:33:55;;;;;;;;;;;29.80;99.90;;;;;;5052460;28;20331;-73
2022/07/24 06:36:20;;;;;;;;;;;29.80;99.90;;;;;;5050682;28;20435;-72
2022/07/24 06:38:46;;;;;;;;;;;29.80;99.90;;;;;;5054144;28;19919;-71
2022/07/24 06:41:11;;;;;;;;;;;29.90;99.90;;;;;;5052104;28;20260;-72
2022/07/24 06:43:37;;;;;;;;;;;29.80;99.90;;;;;;5052356;28;19908;-72
2022/07/24 06:46:03;;;;;;;;;;;29.80;99.90;;;;;;5052202;28;19963;-73
2022/07/24 06:48:29;;;;;;;;;;;29.90;99.90;;;;;;5052295;28;19920;-74
2022/07/24 06:50:55;;;;;;;;;;;29.90;99.90;;;;;;5052405;28;19908;-72
2022/07/24 06:53:20;;;;;;;;;;;30.10;99.90;;;;;;5052750;28;19916;-72
2022/07/24 06:55:47;;;;;;;;;;;30.10;99.90;;;;;;5061958;28;19999;-71
2022/07/24 06:58:12;;;;;;;;;;;30.10;99.90;;;;;;5061628;28;19927;-72
2022/07/24 07:00:38;;;;;;;;;;;30.10;99.90;;;;;;5060203;28;20003;-71
2022/07/24 07:03:05;;;;;;;;;;;30.10;99.90;;;;;;5059595;28;20400;-72
2022/07/24 07:05:30;;;;;;;;;;;30.20;99.90;;;;;;5058433;28;19909;-72
2022/07/24 07:07:56;;;;;;;;;;;30.40;99.90;;;;;;5058550;28;19915;-72
2022/07/24 07:10:23;;;;;;;;;;;30.40;99.90;;;;;;5057531;28;19913;-71
2022/07/24 07:12:48;;;;;;;;;;;30.40;99.90;;;;;;5055245;28;19948;-72
2022/07/24 07:15:14;;;;;;;;;;;30.50;99.90;;;;;;5051130;28;19959;-72
2022/07/24 07:17:41;;;;;;;;;;;30.40;99.90;;;;;;5051266;28;19916;-71
2022/07/24 07:20:07;;;;;;;;;;;30.60;99.90;;;;;;5051540;28;20158;-72
2022/07/24 07:22:33;;;;;;;;;;;30.70;99.90;;;;;;5051180;28;20003;-72
2022/07/24 07:24:58;;;;;;;;;;;30.60;99.90;;;;;;5051628;28;19948;-72
2022/07/24 07:27:24;;;;;;;;;;;30.70;99.90;;;;;;5052461;28;19976;-72
2022/07/24 07:29:49;;;;;;;;;;;30.90;99.90;;;;;;5051400;28;19909;-72
2022/07/24 07:32:15;;;;;;;;;;;30.90;99.90;;;;;;5052584;28;19932;-72
2022/07/24 07:34:41;;;;;;;;;;;30.90;99.90;;;;;;5050864;28;19908;-72
2022/07/24 07:37:06;;;;;;;;;;;31.10;99.90;;;;;;5053103;28;19916;-71
2022/07/24 07:39:32;;;;;;;;;;;31.20;99.90;;;;;;5051418;28;20066;-72
2022/07/24 07:41:57;;;;;;;;;;;31.10;99.90;;;;;;5050982;28;20011;-71
2022/07/24 07:44:23;;;;;;;;;;;31.10;99.90;;;;;;5050917;28;19954;-72
2022/07/24 07:46:48;;;;;;;;;;;31.00;99.90;;;;;;5050730;28;19909;-72
2022/07/24 07:49:14;;;;;;;;;;;31.00;99.90;;;;;;5051162;28;19916;-71
2022/07/24 07:51:40;;;;;;;;;;;31.10;99.90;;;;;;5051102;28;19909;-72
2022/07/24 07:54:05;;;;;;;;;;;31.10;99.90;;;;;;5051330;28;19909;-72
2022/07/24 07:56:32;;;;;;;;;;;31.00;99.90;;;;;;5050718;28;19928;-72
2022/07/24 07:58:58;;;;;;;;;;;31.00;99.90;;;;;;5050701;28;19917;-73
2022/07/24 08:01:23;;;;;;;;;;;31.10;99.90;;;;;;5049639;28;20280;-73
2022/07/24 08:03:49;;;;;;;;;;;31.20;99.90;;;;;;5051091;28;19917;-72
2022/07/24 08:06:15;;;;;;;;;;;31.30;99.90;;;;;;5051360;28;19963;-73
2022/07/24 08:08:40;;;;;;;;;;;31.40;99.90;;;;;;5050511;28;19928;-73
2022/07/24 08:11:06;;;;;;;;;;;31.20;99.90;;;;;;5050804;28;19916;-72
2022/07/24 08:13:31;;;;;;;;;;;31.50;99.90;;;;;;5051107;28;20312;-71
2022/07/24 08:15:57;;;;;;;;;;;31.60;99.90;;;;;;5050721;28;19913;-72
2022/07/24 08:18:22;;;;;;;;;;;31.70;99.90;;;;;;5050523;28;19913;-72
2022/07/24 08:20:48;;;;;;;;;;;31.70;99.90;;;;;;5050939;28;19909;-73
2022/07/24 08:23:14;;;;;;;;;;;31.50;99.90;;;;;;5050921;28;20064;-73
2022/07/24 08:25:39;;;;;;;;;;;31.40;99.90;;;;;;5050649;28;20368;-72
2022/07/24 08:28:05;;;;;;;;;;;31.60;99.90;;;;;;5050990;28;19952;-72
2022/07/24 08:30:31;;;;;;;;;;;31.60;99.90;;;;;;5050664;28;19909;-73
2022/07/24 08:32:56;;;;;;;;;;;31.60;99.90;;;;;;5050501;28;20409;-73
2022/07/24 08:35:23;;;;;;;;;;;31.90;99.90;;;;;;5053039;28;19920;-72
2022/07/24 08:37:48;;;;;;;;;;;32.00;99.90;;;;;;5054319;28;19999;-71
2022/07/24 08:40:15;;;;;;;;;;;32.00;99.90;;;;;;5054391;28;19908;-73
2022/07/24 08:42:40;;;;;;;;;;;32.30;99.90;;;;;;5055612;28;19909;-72
2022/07/24 08:45:06;;;;;;;;;;;32.30;99.90;;;;;;5054473;28;19916;-72
2022/07/24 08:47:32;;;;;;;;;;;32.50;99.90;;;;;;5053207;28;19913;-72
2022/07/24 08:49:59;;;;;;;;;;;32.30;99.90;;;;;;5054984;28;19962;-72
2022/07/24 08:52:25;;;;;;;;;;;32.20;99.90;;;;;;5054458;28;19951;-73
2022/07/24 08:54:51;;;;;;;;;;;32.10;99.90;;;;;;5054889;28;19986;-73
2022/07/24 08:57:16;;;;;;;;;;;32.20;99.90;;;;;;5053988;28;20007;-72
2022/07/24 08:59:42;;;;;;;;;;;32.40;99.90;;;;;;5054318;28;20290;-73
2022/07/24 09:02:08;;;;;;;;;;;32.50;99.90;;;;;;5054350;28;19909;-72
2022/07/24 09:04:34;;;;;;;;;;;32.40;99.90;;;;;;5054396;28;20330;-73
2022/07/24 09:07:00;;;;;;;;;;;32.50;99.90;;;;;;5053959;28;19909;-73
2022/07/24 09:09:26;;;;;;;;;;;32.40;99.90;;;;;;5053777;28;19915;-73
2022/07/24 09:12:09;;;;;;;;;;;32.40;99.90;;;;;;5053798;28;19909;-73
2022/07/24 09:14:37;;;;;;;;;;;32.30;99.90;;;;;;5054024;28;20375;-73
2022/07/24 09:17:04;;;;;;;;;;;32.40;99.90;;;;;;5053665;28;19913;-71
2022/07/24 09:19:29;;;;;;;;;;;32.50;99.90;;;;;;5053683;28;19913;-72
2022/07/24 09:21:55;;;;;;;;;;;32.70;99.90;;;;;;5053668;28;19962;-73
2022/07/24 09:24:21;;;;;;;;;;;32.70;99.90;;;;;;5053198;28;19985;-71
2022/07/24 09:26:51;;;;;;;;;;;32.60;99.90;;;;;;5053426;28;19919;-73
2022/07/24 09:29:17;;;;;;;;;;;32.80;99.90;;;;;;5053357;28;19909;-73
2022/07/24 09:32:00;;;;;;;;;;;32.80;99.90;;;;;;5053568;28;19912;-73
2022/07/24 09:34:27;;;;;;;;;;;32.80;99.90;;;;;;5053320;28;19932;-72
2022/07/24 09:37:00;;;;;;;;;;;32.80;99.90;;;;;;5053145;28;19913;-72
2022/07/24 09:39:26;;;;;;;;;;;32.80;99.90;;;;;;5053923;28;19913;-72
2022/07/24 09:41:52;;;;;;;;;;;32.90;99.90;;;;;;5053748;28;19916;-73
2022/07/24 09:44:18;;;;;;;;;;;32.90;99.90;;;;;;5053668;28;20387;-73
2022/07/24 09:46:48;;;;;;;;;;;32.90;99.90;;;;;;5053471;28;19958;-73
2022/07/24 09:49:20;;;;;;;;;;;33.10;99.90;;;;;;5053693;28;19909;-72
2022/07/24 09:52:05;;;;;;;;;;;33.30;99.90;;;;;;5054149;28;19909;-72
2022/07/24 09:54:36;;;;;;;;;;;33.20;99.90;;;;;;5053313;28;19909;-72
2022/07/24 09:57:18;;;;;;;;;;;33.20;99.90;;;;;;5053173;28;19909;-74
2022/07/24 09:59:48;;;;;;;;;;;33.10;99.90;;;;;;5053546;28;20347;-72
2022/07/24 10:02:15;;;;;;;;;;;33.20;99.90;;;;;;5053933;28;20403;-72
2022/07/24 10:04:44;;;;;;;;;;;33.30;99.90;;;;;;5053511;28;19909;-73
2022/07/24 10:07:10;;;;;;;;;;;33.30;99.90;;;;;;5053863;28;19935;-73
2022/07/24 10:09:36;;;;;;;;;;;33.20;99.90;;;;;;5053444;28;19915;-73
2022/07/24 10:12:03;;;;;;;;;;;33.60;99.90;;;;;;5053691;28;19917;-74
2022/07/24 10:14:29;;;;;;;;;;;33.80;99.90;;;;;;5052864;28;19984;-72
2022/07/24 10:17:03;;;;;;;;;;;33.70;99.90;;;;;;5053353;28;19928;-74
2022/07/24 10:19:31;;;;;;;;;;;33.70;99.90;;;;;;5052727;28;19917;-73
2022/07/24 10:22:00;;;;;;;;;;;33.70;99.90;;;;;;5053711;28;20030;-73
2022/07/24 10:24:34;;;;;;;;;;;33.50;99.90;;;;;;5053621;28;19917;-73
2022/07/24 10:27:04;;;;;;;;;;;33.70;99.90;;;;;;5052888;28;19967;-74
2022/07/24 10:29:33;;;;;;;;;;;34.00;99.90;;;;;;5055617;28;19909;-74
2022/07/24 10:31:59;;;;;;;;;;;34.00;99.90;;;;;;5054228;28;19909;-74
2022/07/24 10:34:27;;;;;;;;;;;33.70;99.90;;;;;;5053557;28;20382;-73
2022/07/24 10:36:55;;;;;;;;;;;34.00;99.90;;;;;;5052323;28;19913;-74
2022/07/24 10:39:26;;;;;;;;;;;34.20;99.90;;;;;;5052899;28;19966;-73
2022/07/24 10:42:01;;;;;;;;;;;34.40;99.90;;;;;;5053722;28;19916;-72
2022/07/24 10:44:27;;;;;;;;;;;34.30;99.90;;;;;;5053853;28;20375;-74
2022/07/24 10:46:59;;;;;;;;;;;34.20;99.90;;;;;;5053940;28;19966;-73
2022/07/24 10:49:34;;;;;;;;;;;34.30;99.90;;;;;;5053376;28;19940;-74
2022/07/24 10:52:00;;;;;;;;;;;34.40;99.90;;;;;;5053051;28;20434;-74
2022/07/24 10:54:26;;;;;;;;;;;34.60;99.90;;;;;;5053296;28;19940;-73
2022/07/24 10:56:51;;;;;;;;;;;34.40;99.90;;;;;;5052897;28;19999;-73
2022/07/24 10:59:31;;;;;;;;;;;34.40;99.90;;;;;;5052882;28;19935;-73
2022/07/24 11:01:57;;;;;;;;;;;34.50;99.90;;;;;;5052092;28;19932;-72
2022/07/24 11:04:22;;;;;;;;;;;34.60;99.90;;;;;;5050347;28;20388;-72
2022/07/24 11:06:48;;;;;;;;;;;34.60;99.90;;;;;;5051768;28;20383;-73
2022/07/24 11:09:15;;;;;;;;;;;34.80;99.90;;;;;;5052281;28;19916;-73
2022/07/24 11:11:52;;;;;;;;;;;35.00;99.90;;;;;;5053908;28;19909;-73
2022/07/24 11:14:22;;;;;;;;;;;34.90;99.90;;;;;;5061294;28;19908;-74
2022/07/24 11:16:48;;;;;;;;;;;34.40;99.90;;;;;;5053430;28;20377;-73
2022/07/24 11:19:16;;;;;;;;;;;34.50;99.90;;;;;;5050831;28;20054;-72
2022/07/24 11:21:43;;;;;;;;;;;34.40;99.90;;;;;;5051648;28;20367;-73
2022/07/24 11:24:21;;;;;;;;;;;34.60;99.90;;;;;;5052377;28;20358;-73
2022/07/24 11:26:57;;;;;;;;;;;34.80;99.90;;;;;;5054167;28;19970;-73
2022/07/24 11:29:25;;;;;;;;;;;34.80;99.90;;;;;;5056123;28;19912;-73
2022/07/24 11:31:54;;;;;;;;;;;35.10;99.90;;;;;;5053744;28;19912;-73
2022/07/24 11:34:19;;;;;;;;;;;35.10;99.90;;;;;;5052247;28;19912;-72
2022/07/24 11:36:50;;;;;;;;;;;35.10;99.90;;;;;;5051667;28;20329;-72
2022/07/24 11:39:16;;;;;;;;;;;35.20;99.90;;;;;;5051384;28;19938;-73
2022/07/24 11:41:45;;;;;;;;;;;35.00;99.90;;;;;;5051596;28;19912;-72
2022/07/24 11:44:11;;;;;;;;;;;35.00;99.90;;;;;;5051596;28;20007;-73
2022/07/24 11:46:39;;;;;;;;;;;34.90;99.90;;;;;;5053592;28;19937;-72
2022/07/24 11:49:05;;;;;;;;;;;34.90;99.90;;;;;;5052975;28;19908;-73
2022/07/24 11:51:31;;;;;;;;;;;35.20;99.90;;;;;;5052529;28;19909;-72
2022/07/24 11:53:56;;;;;;;;;;;35.40;99.90;;;;;;5052804;28;19916;-72
2022/07/24 11:56:22;;;;;;;;;;;35.60;99.90;;;;;;5051046;28;20372;-73
2022/07/24 11:58:48;;;;;;;;;;;35.20;99.90;;;;;;5050919;28;19916;-73
2022/07/24 12:01:24;;;;;;;;;;;35.40;99.90;;;;;;5051676;28;19995;-73
2022/07/24 12:03:53;;;;;;;;;;;35.30;99.90;;;;;;5051427;28;19913;-72
2022/07/24 12:06:19;;;;;;;;;;;35.10;99.90;;;;;;5051105;28;19909;-72
2022/07/24 12:08:44;;;;;;;;;;;35.00;99.90;;;;;;5049561;28;19943;-73
2022/07/24 12:11:10;;;;;;;;;;;35.10;99.90;;;;;;5054704;28;19908;-73
2022/07/24 12:13:41;;;;;;;;;;;35.20;99.90;;;;;;5054625;28;19940;-73
2022/07/24 12:16:07;;;;;;;;;;;35.60;99.90;;;;;;5054653;28;19913;-72
2022/07/24 12:18:33;;;;;;;;;;;35.70;99.90;;;;;;5054574;28;19916;-73
2022/07/24 12:21:00;;;;;;;;;;;35.90;99.90;;;;;;5054700;28;20320;-73
2022/07/24 12:23:25;;;;;;;;;;;35.40;99.90;;;;;;5054612;28;20170;-72
2022/07/24 12:25:51;;;;;;;;;;;35.70;99.90;;;;;;5054342;28;19917;-72
2022/07/24 12:28:18;;;;;;;;;;;35.60;99.90;;;;;;5054639;28;20336;-72
2022/07/24 12:30:54;;;;;;;;;;;35.70;99.90;;;;;;5054675;28;19909;-72
2022/07/24 12:33:27;;;;;;;;;;;35.90;99.90;;;;;;5054827;28;20276;-71
2022/07/24 12:36:15;;;;;;;;;;;35.90;99.90;;;;;;5053805;28;19947;-72
2022/07/24 12:38:49;;;;;;;;;;;35.90;99.90;;;;;;5054387;28;19913;-72
2022/07/24 12:41:16;;;;;;;;;;;35.90;99.90;;;;;;5054513;28;20261;-72
2022/07/24 12:43:54;;;;;;;;;;;35.70;99.90;;;;;;5054164;28;19981;-71
2022/07/24 12:46:21;;;;;;;;;;;35.70;99.90;;;;;;5053925;28;19909;-71
2022/07/24 12:48:58;;;;;;;;;;;36.00;99.90;;;;;;5053649;28;19920;-72
2022/07/24 12:51:24;;;;;;;;;;;36.10;99.90;;;;;;5054230;28;19939;-72
2022/07/24 12:53:52;;;;;;;;;;;36.20;99.90;;;;;;5054463;28;19909;-73
2022/07/24 12:56:18;;;;;;;;;;;36.40;99.90;;;;;;5053860;28;19908;-72
2022/07/24 12:59:04;;;;;;;;;;;36.50;99.90;;;;;;5053704;28;20125;-73
2022/07/24 13:01:47;;;;;;;;;;;36.40;99.90;;;;;;5052473;28;19920;-72
2022/07/24 13:04:14;;;;;;;;;;;36.50;99.80;;;;;;5053502;28;19913;-73
2022/07/24 13:06:46;;;;;;;;;;;36.60;99.70;;;;;;5052816;28;20440;-72
2022/07/24 13:09:12;;;;;;;;;;;36.50;99.70;;;;;;5049105;28;19912;-73
2022/07/24 13:11:38;;;;;;;;;;;36.50;99.20;;;;;;5053193;28;19916;-72
2022/07/24 13:14:05;;;;;;;;;;;36.20;99.40;;;;;;5053914;28;20376;-72
2022/07/24 13:16:31;;;;;;;;;;;36.00;99.60;;;;;;5053872;28;19962;-73
2022/07/24 13:31:06;;;;;;;;;;;36.40;99.00;;;;;;5108067;27;20304;-70
2022/07/24 13:33:31;;;;;;;;;;;36.10;99.40;;;;;;5117246;28;20003;-70
2022/07/24 13:35:57;;;;;;;;;;;36.00;99.50;;;;;;5118850;27;19911;-70
2022/07/24 13:38:22;;;;;;;;;;;36.00;99.40;;;;;;5135879;27;20411;-71
2022/07/24 13:40:48;;;;;;;;;;;36.20;99.70;;;;;;5113480;27;20438;-71
2022/07/24 13:43:13;;;;;;;;;;;36.20;99.30;;;;;;5129389;27;19918;-69
2022/07/24 13:45:39;;;;;;;;;;;36.40;99.70;;;;;;5128400;27;19912;-71
2022/07/24 13:48:05;;;;;;;;;;;36.50;99.00;;;;;;5128605;28;19919;-71
2022/07/24 13:50:30;;;;;;;;;;;36.60;98.70;;;;;;5127576;27;20373;-70
2022/07/24 13:52:56;;;;;;;;;;;36.50;98.70;;;;;;5126955;28;19994;-69
2022/07/24 13:55:22;;;;;;;;;;;36.50;98.90;;;;;;5127387;27;19989;-71
2022/07/24 13:57:47;;;;;;;;;;;36.70;98.80;;;;;;5126841;28;20045;-71
2022/07/24 14:00:13;;;;;;;;;;;37.10;98.60;;;;;;5128294;27;20021;-70
2022/07/24 14:02:39;;;;;;;;;;;37.40;98.90;;;;;;5128300;28;20010;-73
2022/07/24 14:05:04;;;;;;;;;;;37.60;98.20;;;;;;5128143;28;20030;-69
2022/07/24 14:07:30;;;;;;;;;;;37.90;97.80;;;;;;5128075;28;19911;-71
2022/07/24 14:09:55;;;;;;;;;;;37.80;98.00;;;;;;5127175;27;20289;-70
2022/07/24 14:12:21;;;;;;;;;;;37.90;97.40;;;;;;5127514;28;19993;-69
2022/07/24 14:14:47;;;;;;;;;;;38.10;97.30;;;;;;5126533;28;19971;-71
2022/07/24 14:17:13;;;;;;;;;;;38.20;97.10;;;;;;5126450;28;19957;-71
2022/07/24 14:19:38;;;;;;;;;;;38.10;97.00;;;;;;5129158;27;19998;-71
2022/07/24 14:22:04;;;;;;;;;;;37.90;97.20;;;;;;5148678;27;19903;-71
2022/07/24 14:24:30;;;;;;;;;;;37.90;97.00;;;;;;5130558;27;19998;-71